St Andrews, United Kingdom
Current Conditions -  °F | °C
As of 4:50 AM on Saturday 29 Nov 2014 (Local Time) from EGQL Reporting Station
Drizzle Drizzle  
Wind Chill: 50°   Ceiling: 1500
Heat Index: 50°   Visibility: 3mi
Dew Point: 48°   Wind: 13mph
Humidity: 94%   Direction: 120°ESE
Pressure: 29.88"   Gusts: NA
Location:  56.34°N, 2.8°W
Report Text: EGQL 290450Z 12011KT 5000 -DZ FEW007 BKN015 10/09 Q1012 WHT
Loading
Personal Weather Stations






























Interactive Weather Map New forecast layout! Learn more

10-Day Weather Forecast

Advertisements
Track Severe Weather on mobile